sensor_id;sensor_type;location;lat;lon;timestamp;temperature;humidity
27741;DHT22;15134;48.768;9.184;2023-02-23T00:00:27;10.40;99.90
27741;DHT22;15134;48.768;9.184;2023-02-23T00:02:55;10.40;99.90
27741;DHT22;15134;48.768;9.184;2023-02-23T00:05:24;10.40;99.90
27741;DHT22;15134;48.768;9.184;2023-02-23T00:07:51;10.40;99.90
27741;DHT22;15134;48.768;9.184;2023-02-23T00:10:17;10.30;99.90
27741;DHT22;15134;48.768;9.184;2023-02-23T00:12:46;10.40;99.90
27741;DHT22;15134;48.768;9.184;2023-02-23T00:15:11;10.30;99.90
27741;DHT22;15134;48.768;9.184;2023-02-23T00:17:38;10.30;99.90
27741;DHT22;15134;48.768;9.184;2023-02-23T00:20:07;10.30;99.90
27741;DHT22;15134;48.768;9.184;2023-02-23T00:22:38;10.30;99.90
27741;DHT22;15134;48.768;9.184;2023-02-23T00:25:06;10.30;99.90
27741;DHT22;15134;48.768;9.184;2023-02-23T00:27:32;10.30;99.90
27741;DHT22;15134;48.768;9.184;2023-02-23T00:29:58;10.40;99.90
27741;DHT22;15134;48.768;9.184;2023-02-23T00:32:24;10.40;99.90
27741;DHT22;15134;48.768;9.184;2023-02-23T00:34:50;10.40;99.90
27741;DHT22;15134;48.768;9.184;2023-02-23T00:37:19;10.40;99.90
27741;DHT22;15134;48.768;9.184;2023-02-23T00:39:47;10.50;99.90
27741;DHT22;15134;48.768;9.184;2023-02-23T00:42:13;10.50;99.90
27741;DHT22;15134;48.768;9.184;2023-02-23T00:44:39;10.50;99.90
27741;DHT22;15134;48.768;9.184;2023-02-23T00:47:06;10.40;99.90
27741;DHT22;15134;48.768;9.184;2023-02-23T00:49:32;10.30;99.90
27741;DHT22;15134;48.768;9.184;2023-02-23T00:51:58;10.20;99.90
27741;DHT22;15134;48.768;9.184;2023-02-23T00:54:24;10.10;99.90
27741;DHT22;15134;48.768;9.184;2023-02-23T00:56:50;10.00;99.90
27741;DHT22;15134;48.768;9.184;2023-02-23T00:59:17;10.00;99.90
27741;DHT22;15134;48.768;9.184;2023-02-23T01:01:44;10.10;99.90
27741;DHT22;15134;48.768;9.184;2023-02-23T01:04:11;10.00;99.90
27741;DHT22;15134;48.768;9.184;2023-02-23T01:06:38;10.10;99.90
27741;DHT22;15134;48.768;9.184;2023-02-23T01:09:12;10.00;99.90
27741;DHT22;15134;48.768;9.184;2023-02-23T01:11:38;10.00;99.90
27741;DHT22;15134;48.768;9.184;2023-02-23T01:14:06;10.10;99.90
27741;DHT22;15134;48.768;9.184;2023-02-23T01:16:33;10.10;99.90
27741;DHT22;15134;48.768;9.184;2023-02-23T01:19:01;10.10;99.90
27741;DHT22;15134;48.768;9.184;2023-02-23T01:21:36;10.10;99.90
27741;DHT22;15134;48.768;9.184;2023-02-23T01:24:03;10.00;99.90
27741;DHT22;15134;48.768;9.184;2023-02-23T01:26:33;10.00;99.90
27741;DHT22;15134;48.768;9.184;2023-02-23T01:29:27;10.00;99.90
27741;DHT22;15134;48.768;9.184;2023-02-23T01:31:52;10.00;99.90
27741;DHT22;15134;48.768;9.184;2023-02-23T01:34:19;10.00;99.90
27741;DHT22;15134;48.768;9.184;2023-02-23T01:36:46;9.90;99.90
27741;DHT22;15134;48.768;9.184;2023-02-23T01:39:18;10.00;99.90
27741;DHT22;15134;48.768;9.184;2023-02-23T01:41:45;10.00;99.90
27741;DHT22;15134;48.768;9.184;2023-02-23T01:46:41;10.10;99.90
27741;DHT22;15134;48.768;9.184;2023-02-23T01:49:11;10.10;99.90
27741;DHT22;15134;48.768;9.184;2023-02-23T01:51:43;10.10;99.90
27741;DHT22;15134;48.768;9.184;2023-02-23T01:54:18;10.10;99.90
27741;DHT22;15134;48.768;9.184;2023-02-23T01:56:50;10.10;99.90
27741;DHT22;15134;48.768;9.184;2023-02-23T01:59:27;10.10;99.90
27741;DHT22;15134;48.768;9.184;2023-02-23T02:01:55;10.10;99.90
27741;DHT22;15134;48.768;9.184;2023-02-23T02:04:21;10.20;99.90
27741;DHT22;15134;48.768;9.184;2023-02-23T02:06:50;10.10;99.90
27741;DHT22;15134;48.768;9.184;2023-02-23T02:09:19;10.20;99.90
27741;DHT22;15134;48.768;9.184;2023-02-23T02:11:50;10.20;99.90
27741;DHT22;15134;48.768;9.184;2023-02-23T02:14:25;10.10;99.90
27741;DHT22;15134;48.768;9.184;2023-02-23T02:31:48;10.10;99.90
27741;DHT22;15134;48.768;9.184;2023-02-23T02:42:37;10.10;99.90
27741;DHT22;15134;48.768;9.184;2023-02-23T02:45:25;10.00;99.90
27741;DHT22;15134;48.768;9.184;2023-02-23T02:48:11;9.90;99.90
27741;DHT22;15134;48.768;9.184;2023-02-23T02:50:54;9.90;99.90
27741;DHT22;15134;48.768;9.184;2023-02-23T02:53:39;9.80;99.90
27741;DHT22;15134;48.768;9.184;2023-02-23T02:56:07;9.80;99.90
27741;DHT22;15134;48.768;9.184;2023-02-23T02:58:36;9.80;99.90
27741;DHT22;15134;48.768;9.184;2023-02-23T03:01:11;9.80;99.90
27741;DHT22;15134;48.768;9.184;2023-02-23T03:03:58;9.80;99.90
27741;DHT22;15134;48.768;9.184;2023-02-23T03:06:54;9.80;99.90
27741;DHT22;15134;48.768;9.184;2023-02-23T03:09:49;9.90;99.90
27741;DHT22;15134;48.768;9.184;2023-02-23T03:21:48;10.10;99.90
27741;DHT22;15134;48.768;9.184;2023-02-23T03:24:48;10.10;99.90
27741;DHT22;15134;48.768;9.184;2023-02-23T03:27:54;10.20;99.90
27741;DHT22;15134;48.768;9.184;2023-02-23T03:30:47;10.30;99.90
27741;DHT22;15134;48.768;9.184;2023-02-23T03:36:26;10.30;99.90
27741;DHT22;15134;48.768;9.184;2023-02-23T03:39:28;10.40;99.90
27741;DHT22;15134;48.768;9.184;2023-02-23T03:42:18;10.40;99.90
27741;DHT22;15134;48.768;9.184;2023-02-23T03:45:11;10.40;99.90
27741;DHT22;15134;48.768;9.184;2023-02-23T03:47:59;10.40;99.90
27741;DHT22;15134;48.768;9.184;2023-02-23T03:50:50;10.40;99.90
27741;DHT22;15134;48.768;9.184;2023-02-23T03:56:43;10.30;99.90
27741;DHT22;15134;48.768;9.184;2023-02-23T03:59:35;10.40;99.90
27741;DHT22;15134;48.768;9.184;2023-02-23T04:02:22;10.40;99.90
27741;DHT22;15134;48.768;9.184;2023-02-23T04:05:11;10.30;99.90
27741;DHT22;15134;48.768;9.184;2023-02-23T04:08:02;10.30;99.90
27741;DHT22;15134;48.768;9.184;2023-02-23T04:10:53;10.30;99.90
27741;DHT22;15134;48.768;9.184;2023-02-23T04:13:43;10.30;99.90
27741;DHT22;15134;48.768;9.184;2023-02-23T04:16:13;10.30;99.90
27741;DHT22;15134;48.768;9.184;2023-02-23T04:18:39;10.30;99.90
27741;DHT22;15134;48.768;9.184;2023-02-23T04:21:05;10.30;99.90
27741;DHT22;15134;48.768;9.184;2023-02-23T04:23:32;10.30;99.90
27741;DHT22;15134;48.768;9.184;2023-02-23T04:25:58;10.20;99.90
27741;DHT22;15134;48.768;9.184;2023-02-23T04:28:25;10.20;99.90
27741;DHT22;15134;48.768;9.184;2023-02-23T04:30:51;10.20;99.90
27741;DHT22;15134;48.768;9.184;2023-02-23T04:33:19;10.20;99.90
27741;DHT22;15134;48.768;9.184;2023-02-23T04:35:47;10.20;99.90
27741;DHT22;15134;48.768;9.184;2023-02-23T04:38:12;10.20;99.90
27741;DHT22;15134;48.768;9.184;2023-02-23T04:40:38;10.20;99.90
27741;DHT22;15134;48.768;9.184;2023-02-23T04:43:04;10.10;99.90
27741;DHT22;15134;48.768;9.184;2023-02-23T04:45:30;10.10;99.90
27741;DHT22;15134;48.768;9.184;2023-02-23T04:47:56;10.10;99.90
27741;DHT22;15134;48.768;9.184;2023-02-23T04:50:21;10.10;99.90
27741;DHT22;15134;48.768;9.184;2023-02-23T04:52:47;10.20;99.90
27741;DHT22;15134;48.768;9.184;2023-02-23T04:55:17;10.20;99.90
27741;DHT22;15134;48.768;9.184;2023-02-23T04:57:43;10.20;99.90
27741;DHT22;15134;48.768;9.184;2023-02-23T05:00:09;10.20;99.90
27741;DHT22;15134;48.768;9.184;2023-02-23T05:02:35;10.30;99.90
27741;DHT22;15134;48.768;9.184;2023-02-23T05:05:01;10.30;99.90
27741;DHT22;15134;48.768;9.184;2023-02-23T05:07:26;10.30;99.90
27741;DHT22;15134;48.768;9.184;2023-02-23T05:09:52;10.30;99.90
27741;DHT22;15134;48.768;9.184;2023-02-23T05:12:18;10.20;99.90
27741;DHT22;15134;48.768;9.184;2023-02-23T05:14:45;10.10;99.90
27741;DHT22;15134;48.768;9.184;2023-02-23T05:17:10;10.10;99.90
27741;DHT22;15134;48.768;9.184;2023-02-23T05:19:36;10.10;99.90
27741;DHT22;15134;48.768;9.184;2023-02-23T05:22:02;10.10;99.90
27741;DHT22;15134;48.768;9.184;2023-02-23T05:24:28;10.20;99.90
27741;DHT22;15134;48.768;9.184;2023-02-23T05:26:54;10.30;99.90
27741;DHT22;15134;48.768;9.184;2023-02-23T05:29:20;10.30;99.90
27741;DHT22;15134;48.768;9.184;2023-02-23T05:31:46;10.30;99.90
27741;DHT22;15134;48.768;9.184;2023-02-23T05:34:13;10.30;99.90
27741;DHT22;15134;48.768;9.184;2023-02-23T05:36:38;10.40;99.90
27741;DHT22;15134;48.768;9.184;2023-02-23T05:39:04;10.40;99.90
27741;DHT22;15134;48.768;9.184;2023-02-23T05:41:30;10.40;99.90
27741;DHT22;15134;48.768;9.184;2023-02-23T05:43:56;10.30;99.90
27741;DHT22;15134;48.768;9.184;2023-02-23T05:46:24;10.30;99.90
27741;DHT22;15134;48.768;9.184;2023-02-23T05:48:54;10.30;99.90
27741;DHT22;15134;48.768;9.184;2023-02-23T05:51:20;10.20;99.90
27741;DHT22;15134;48.768;9.184;2023-02-23T05:53:46;10.20;99.90
27741;DHT22;15134;48.768;9.184;2023-02-23T05:56:15;10.10;99.90
27741;DHT22;15134;48.768;9.184;2023-02-23T05:58:48;10.10;99.90
27741;DHT22;15134;48.768;9.184;2023-02-23T06:01:15;10.00;99.90
27741;DHT22;15134;48.768;9.184;2023-02-23T06:03:42;10.00;99.90
27741;DHT22;15134;48.768;9.184;2023-02-23T06:06:08;9.90;99.90
27741;DHT22;15134;48.768;9.184;2023-02-23T06:08:34;9.90;99.90
27741;DHT22;15134;48.768;9.184;2023-02-23T06:10:59;9.90;99.90
27741;DHT22;15134;48.768;9.184;2023-02-23T06:13:26;9.90;99.90
27741;DHT22;15134;48.768;9.184;2023-02-23T06:15:53;9.90;99.90
27741;DHT22;15134;48.768;9.184;2023-02-23T06:18:19;9.90;99.90
27741;DHT22;15134;48.768;9.184;2023-02-23T06:20:46;9.90;99.90
27741;DHT22;15134;48.768;9.184;2023-02-23T06:23:12;9.90;99.90
27741;DHT22;15134;48.768;9.184;2023-02-23T06:25:41;10.00;99.90
27741;DHT22;15134;48.768;9.184;2023-02-23T06:28:07;10.10;99.90
27741;DHT22;15134;48.768;9.184;2023-02-23T06:30:34;10.10;99.90
27741;DHT22;15134;48.768;9.184;2023-02-23T06:33:00;10.10;99.90
27741;DHT22;15134;48.768;9.184;2023-02-23T06:35:26;10.10;99.90
27741;DHT22;15134;48.768;9.184;2023-02-23T06:37:52;10.20;99.90
27741;DHT22;15134;48.768;9.184;2023-02-23T06:40:19;10.20;99.90
27741;DHT22;15134;48.768;9.184;2023-02-23T06:42:45;10.20;99.90
27741;DHT22;15134;48.768;9.184;2023-02-23T06:45:11;10.20;99.90
27741;DHT22;15134;48.768;9.184;2023-02-23T06:47:38;10.20;99.90
27741;DHT22;15134;48.768;9.184;2023-02-23T06:50:08;10.20;99.90
27741;DHT22;15134;48.768;9.184;2023-02-23T06:52:34;10.20;99.90
27741;DHT22;15134;48.768;9.184;2023-02-23T06:55:00;10.10;99.90
27741;DHT22;15134;48.768;9.184;2023-02-23T06:57:26;10.00;99.90
27741;DHT22;15134;48.768;9.184;2023-02-23T06:59:51;10.00;99.90
27741;DHT22;15134;48.768;9.184;2023-02-23T07:02:18;10.00;99.90
27741;DHT22;15134;48.768;9.184;2023-02-23T07:04:43;10.00;99.90
27741;DHT22;15134;48.768;9.184;2023-02-23T07:07:10;10.00;99.90
27741;DHT22;15134;48.768;9.184;2023-02-23T07:09:39;10.00;99.90
27741;DHT22;15134;48.768;9.184;2023-02-23T07:12:04;10.10;99.90
27741;DHT22;15134;48.768;9.184;2023-02-23T07:14:31;10.10;99.90
27741;DHT22;15134;48.768;9.184;2023-02-23T07:16:57;10.20;99.90
27741;DHT22;15134;48.768;9.184;2023-02-23T07:19:23;10.20;99.90
27741;DHT22;15134;48.768;9.184;2023-02-23T07:21:49;10.20;99.90
27741;DHT22;15134;48.768;9.184;2023-02-23T07:24:15;10.20;99.90
27741;DHT22;15134;48.768;9.184;2023-02-23T07:26:41;10.20;99.90
27741;DHT22;15134;48.768;9.184;2023-02-23T07:29:10;10.30;99.90
27741;DHT22;15134;48.768;9.184;2023-02-23T07:31:37;10.30;99.90
27741;DHT22;15134;48.768;9.184;2023-02-23T07:34:03;10.40;99.90
27741;DHT22;15134;48.768;9.184;2023-02-23T07:36:28;10.50;99.90
27741;DHT22;15134;48.768;9.184;2023-02-23T07:38:54;10.50;99.90
27741;DHT22;15134;48.768;9.184;2023-02-23T07:41:20;10.60;99.90
27741;DHT22;15134;48.768;9.184;2023-02-23T07:43:46;10.70;99.90
27741;DHT22;15134;48.768;9.184;2023-02-23T07:46:12;10.80;99.90
27741;DHT22;15134;48.768;9.184;2023-02-23T07:48:41;10.80;99.90
27741;DHT22;15134;48.768;9.184;2023-02-23T07:51:10;10.90;99.90
27741;DHT22;15134;48.768;9.184;2023-02-23T07:53:37;10.80;99.90
27741;DHT22;15134;48.768;9.184;2023-02-23T07:56:03;10.90;99.90
27741;DHT22;15134;48.768;9.184;2023-02-23T07:58:29;10.90;99.90
27741;DHT22;15134;48.768;9.184;2023-02-23T08:00:56;10.90;99.90
27741;DHT22;15134;48.768;9.184;2023-02-23T08:03:22;10.90;99.90
27741;DHT22;15134;48.768;9.184;2023-02-23T08:05:48;10.90;99.90
27741;DHT22;15134;48.768;9.184;2023-02-23T08:08:14;10.90;99.90
27741;DHT22;15134;48.768;9.184;2023-02-23T08:10:40;11.00;99.90
27741;DHT22;15134;48.768;9.184;2023-02-23T08:13:06;11.00;99.90
27741;DHT22;15134;48.768;9.184;2023-02-23T08:15:32;10.90;99.90
27741;DHT22;15134;48.768;9.184;2023-02-23T08:17:57;10.90;99.90
27741;DHT22;15134;48.768;9.184;2023-02-23T08:20:23;11.00;99.90
27741;DHT22;15134;48.768;9.184;2023-02-23T08:22:53;11.00;99.90
27741;DHT22;15134;48.768;9.184;2023-02-23T08:25:19;11.10;99.90
27741;DHT22;15134;48.768;9.184;2023-02-23T08:27:46;11.10;99.90
27741;DHT22;15134;48.768;9.184;2023-02-23T08:30:12;11.10;99.90
27741;DHT22;15134;48.768;9.184;2023-02-23T08:32:39;11.10;99.90
27741;DHT22;15134;48.768;9.184;2023-02-23T08:35:05;11.20;99.90
27741;DHT22;15134;48.768;9.184;2023-02-23T08:37:32;11.30;99.90
27741;DHT22;15134;48.768;9.184;2023-02-23T08:39:58;11.30;99.90
27741;DHT22;15134;48.768;9.184;2023-02-23T08:42:25;11.50;99.90
27741;DHT22;15134;48.768;9.184;2023-02-23T08:44:51;11.50;99.90
27741;DHT22;15134;48.768;9.184;2023-02-23T08:47:17;11.50;99.90
27741;DHT22;15134;48.768;9.184;2023-02-23T08:49:51;11.60;99.90
27741;DHT22;15134;48.768;9.184;2023-02-23T08:52:19;11.60;99.90
27741;DHT22;15134;48.768;9.184;2023-02-23T08:54:45;11.50;99.90
27741;DHT22;15134;48.768;9.184;2023-02-23T08:57:11;11.60;99.90
27741;DHT22;15134;48.768;9.184;2023-02-23T08:59:37;11.50;99.90
27741;DHT22;15134;48.768;9.184;2023-02-23T09:02:04;11.50;99.90
27741;DHT22;15134;48.768;9.184;2023-02-23T09:04:32;11.50;99.90
27741;DHT22;15134;48.768;9.184;2023-02-23T09:07:00;11.50;99.90
27741;DHT22;15134;48.768;9.184;2023-02-23T09:09:26;11.60;99.90
27741;DHT22;15134;48.768;9.184;2023-02-23T09:11:52;11.70;99.90
27741;DHT22;15134;48.768;9.184;2023-02-23T09:14:18;11.70;99.90
27741;DHT22;15134;48.768;9.184;2023-02-23T09:16:44;11.70;99.90
27741;DHT22;15134;48.768;9.184;2023-02-23T09:19:10;11.90;99.90
27741;DHT22;15134;48.768;9.184;2023-02-23T09:21:36;11.90;99.90
27741;DHT22;15134;48.768;9.184;2023-02-23T09:24:02;12.00;99.90
27741;DHT22;15134;48.768;9.184;2023-02-23T09:26:28;12.10;99.90
27741;DHT22;15134;48.768;9.184;2023-02-23T09:28:55;12.20;99.90
27741;DHT22;15134;48.768;9.184;2023-02-23T09:31:23;12.30;99.90
27741;DHT22;15134;48.768;9.184;2023-02-23T09:33:49;12.30;99.90
27741;DHT22;15134;48.768;9.184;2023-02-23T09:36:19;12.20;99.90
27741;DHT22;15134;48.768;9.184;2023-02-23T09:38:47;12.30;99.90
27741;DHT22;15134;48.768;9.184;2023-02-23T09:49:23;12.60;99.90
27741;DHT22;15134;48.768;9.184;2023-02-23T09:51:53;12.60;99.90
27741;DHT22;15134;48.768;9.184;2023-02-23T09:54:24;12.60;99.90
27741;DHT22;15134;48.768;9.184;2023-02-23T09:56:52;12.70;99.90
27741;DHT22;15134;48.768;9.184;2023-02-23T09:59:23;12.70;99.90
27741;DHT22;15134;48.768;9.184;2023-02-23T10:04:58;13.00;99.90
27741;DHT22;15134;48.768;9.184;2023-02-23T10:15:52;14.00;99.90
27741;DHT22;15134;48.768;9.184;2023-02-23T10:18:39;14.50;99.90
27741;DHT22;15134;48.768;9.184;2023-02-23T10:24:00;15.30;99.90
27741;DHT22;15134;48.768;9.184;2023-02-23T10:26:37;15.50;99.90
27741;DHT22;15134;48.768;9.184;2023-02-23T10:32:11;15.30;99.90
27741;DHT22;15134;48.768;9.184;2023-02-23T10:34:40;15.30;99.90
27741;DHT22;15134;48.768;9.184;2023-02-23T10:37:10;15.40;99.90
27741;DHT22;15134;48.768;9.184;2023-02-23T10:39:39;15.40;99.90
27741;DHT22;15134;48.768;9.184;2023-02-23T10:42:09;15.30;99.90
27741;DHT22;15134;48.768;9.184;2023-02-23T10:44:37;15.20;99.90
27741;DHT22;15134;48.768;9.184;2023-02-23T10:47:16;15.20;99.90
27741;DHT22;15134;48.768;9.184;2023-02-23T10:52:17;14.90;99.90
27741;DHT22;15134;48.768;9.184;2023-02-23T10:54:46;14.90;99.90
27741;DHT22;15134;48.768;9.184;2023-02-23T10:57:27;14.90;99.90
27741;DHT22;15134;48.768;9.184;2023-02-23T11:02:42;14.70;99.90
27741;DHT22;15134;48.768;9.184;2023-02-23T11:05:33;14.70;99.90
27741;DHT22;15134;48.768;9.184;2023-02-23T11:08:23;14.60;99.90
27741;DHT22;15134;48.768;9.184;2023-02-23T11:11:01;14.60;99.90
27741;DHT22;15134;48.768;9.184;2023-02-23T11:13:37;14.70;99.90
27741;DHT22;15134;48.768;9.184;2023-02-23T11:16:12;14.70;99.90
27741;DHT22;15134;48.768;9.184;2023-02-23T11:18:40;14.70;99.90
27741;DHT22;15134;48.768;9.184;2023-02-23T11:21:20;14.60;99.90
27741;DHT22;15134;48.768;9.184;2023-02-23T11:23:49;14.60;99.90
27741;DHT22;15134;48.768;9.184;2023-02-23T11:26:29;14.50;99.90
27741;DHT22;15134;48.768;9.184;2023-02-23T11:28:58;14.50;99.90
27741;DHT22;15134;48.768;9.184;2023-02-23T11:31:31;14.50;99.90
27741;DHT22;15134;48.768;9.184;2023-02-23T11:34:03;14.50;99.90
27741;DHT22;15134;48.768;9.184;2023-02-23T11:36:34;14.50;99.90
27741;DHT22;15134;48.768;9.184;2023-02-23T11:41:35;14.20;99.90
27741;DHT22;15134;48.768;9.184;2023-02-23T11:44:02;14.20;99.90
27741;DHT22;15134;48.768;9.184;2023-02-23T11:46:30;14.20;99.90
27741;DHT22;15134;48.768;9.184;2023-02-23T11:48:59;14.20;99.90
27741;DHT22;15134;48.768;9.184;2023-02-23T11:51:39;14.20;99.90
27741;DHT22;15134;48.768;9.184;2023-02-23T11:54:07;14.30;99.90
27741;DHT22;15134;48.768;9.184;2023-02-23T11:56:47;14.30;99.90
27741;DHT22;15134;48.768;9.184;2023-02-23T11:59:18;14.30;99.90
27741;DHT22;15134;48.768;9.184;2023-02-23T12:01:50;14.20;99.90
27741;DHT22;15134;48.768;9.184;2023-02-23T12:09:43;14.50;99.90
27741;DHT22;15134;48.768;9.184;2023-02-23T12:12:19;14.40;99.90
27741;DHT22;15134;48.768;9.184;2023-02-23T12:14:57;14.40;99.90
27741;DHT22;15134;48.768;9.184;2023-02-23T12:17:26;14.20;99.90
27741;DHT22;15134;48.768;9.184;2023-02-23T12:19:58;14.00;99.90
27741;DHT22;15134;48.768;9.184;2023-02-23T12:22:39;13.80;99.90
27741;DHT22;15134;48.768;9.184;2023-02-23T12:28:08;13.50;99.90
27741;DHT22;15134;48.768;9.184;2023-02-23T12:30:49;13.40;99.90
27741;DHT22;15134;48.768;9.184;2023-02-23T12:33:23;13.40;99.90
27741;DHT22;15134;48.768;9.184;2023-02-23T12:42:12;13.30;99.90
27741;DHT22;15134;48.768;9.184;2023-02-23T12:44:50;13.40;99.90
27741;DHT22;15134;48.768;9.184;2023-02-23T12:49:57;13.30;99.90
27741;DHT22;15134;48.768;9.184;2023-02-23T12:52:59;13.40;99.90
27741;DHT22;15134;48.768;9.184;2023-02-23T12:55:34;13.50;99.90
27741;DHT22;15134;48.768;9.184;2023-02-23T12:58:15;13.60;99.90
27741;DHT22;15134;48.768;9.184;2023-02-23T13:01:02;13.50;99.90
27741;DHT22;15134;48.768;9.184;2023-02-23T13:03:54;13.40;99.90
27741;DHT22;15134;48.768;9.184;2023-02-23T13:20:40;13.70;99.90
27741;DHT22;15134;48.768;9.184;2023-02-23T13:23:37;13.80;99.90
27741;DHT22;15134;48.768;9.184;2023-02-23T13:26:20;13.90;99.90
27741;DHT22;15134;48.768;9.184;2023-02-23T13:28:54;13.90;99.90
27741;DHT22;15134;48.768;9.184;2023-02-23T13:31:28;13.90;99.90
27741;DHT22;15134;48.768;9.184;2023-02-23T13:33:57;13.80;99.90
27741;DHT22;15134;48.768;9.184;2023-02-23T13:36:26;13.80;99.90
27741;DHT22;15134;48.768;9.184;2023-02-23T13:39:07;13.70;99.90
27741;DHT22;15134;48.768;9.184;2023-02-23T13:50:44;13.60;99.90
27741;DHT22;15134;48.768;9.184;2023-02-23T13:53:38;13.50;99.90
27741;DHT22;15134;48.768;9.184;2023-02-23T13:56:13;13.50;99.90
27741;DHT22;15134;48.768;9.184;2023-02-23T13:58:46;13.50;99.90
27741;DHT22;15134;48.768;9.184;2023-02-23T14:01:19;13.50;99.90
27741;DHT22;15134;48.768;9.184;2023-02-23T14:03:52;13.40;99.90
27741;DHT22;15134;48.768;9.184;2023-02-23T14:06:21;13.30;99.90
27741;DHT22;15134;48.768;9.184;2023-02-23T14:11:38;13.20;99.90
27741;DHT22;15134;48.768;9.184;2023-02-23T14:14:11;13.20;99.90
27741;DHT22;15134;48.768;9.184;2023-02-23T14:16:38;13.10;99.90
27741;DHT22;15134;48.768;9.184;2023-02-23T14:19:37;13.10;99.90
27741;DHT22;15134;48.768;9.184;2023-02-23T14:22:09;13.00;99.90
27741;DHT22;15134;48.768;9.184;2023-02-23T14:24:35;13.10;99.90
27741;DHT22;15134;48.768;9.184;2023-02-23T14:27:15;13.10;99.90
27741;DHT22;15134;48.768;9.184;2023-02-23T14:30:11;13.10;99.90
27741;DHT22;15134;48.768;9.184;2023-02-23T14:32:33;13.10;99.90
27741;DHT22;15134;48.768;9.184;2023-02-23T14:35:02;13.10;99.90
27741;DHT22;15134;48.768;9.184;2023-02-23T14:37:39;13.20;99.90
27741;DHT22;15134;48.768;9.184;2023-02-23T14:40:19;13.20;99.90
27741;DHT22;15134;48.768;9.184;2023-02-23T14:42:49;13.20;99.90
27741;DHT22;15134;48.768;9.184;2023-02-23T14:45:26;13.20;99.90
27741;DHT22;15134;48.768;9.184;2023-02-23T14:48:11;13.30;99.90
27741;DHT22;15134;48.768;9.184;2023-02-23T14:50:42;13.30;99.90
27741;DHT22;15134;48.768;9.184;2023-02-23T14:53:21;13.30;99.90
27741;DHT22;15134;48.768;9.184;2023-02-23T14:55:47;13.30;99.90
27741;DHT22;15134;48.768;9.184;2023-02-23T14:58:29;13.10;99.90
27741;DHT22;15134;48.768;9.184;2023-02-23T15:00:58;13.00;99.90
27741;DHT22;15134;48.768;9.184;2023-02-23T15:03:24;12.90;99.90
27741;DHT22;15134;48.768;9.184;2023-02-23T15:05:55;12.90;99.90
27741;DHT22;15134;48.768;9.184;2023-02-23T15:08:23;12.90;99.90
27741;DHT22;15134;48.768;9.184;2023-02-23T15:10:57;12.90;99.90
27741;DHT22;15134;48.768;9.184;2023-02-23T15:13:33;12.90;99.90
27741;DHT22;15134;48.768;9.184;2023-02-23T15:16:14;12.90;99.90
27741;DHT22;15134;48.768;9.184;2023-02-23T15:18:42;12.90;99.90
27741;DHT22;15134;48.768;9.184;2023-02-23T15:21:11;12.90;99.90
27741;DHT22;15134;48.768;9.184;2023-02-23T15:23:37;12.90;99.90
27741;DHT22;15134;48.768;9.184;2023-02-23T15:26:28;12.90;99.90
27741;DHT22;15134;48.768;9.184;2023-02-23T15:31:35;12.90;99.90
27741;DHT22;15134;48.768;9.184;2023-02-23T15:34:04;12.90;99.90
27741;DHT22;15134;48.768;9.184;2023-02-23T15:36:31;13.00;99.90
27741;DHT22;15134;48.768;9.184;2023-02-23T15:39:01;13.00;99.90
27741;DHT22;15134;48.768;9.184;2023-02-23T15:41:31;12.90;99.90
27741;DHT22;15134;48.768;9.184;2023-02-23T15:44:08;12.90;99.90
27741;DHT22;15134;48.768;9.184;2023-02-23T15:46:37;12.90;99.90
27741;DHT22;15134;48.768;9.184;2023-02-23T15:49:04;12.80;99.90
27741;DHT22;15134;48.768;9.184;2023-02-23T15:51:42;12.90;99.90
27741;DHT22;15134;48.768;9.184;2023-02-23T15:54:23;12.90;99.90
27741;DHT22;15134;48.768;9.184;2023-02-23T15:56:57;12.90;99.90
27741;DHT22;15134;48.768;9.184;2023-02-23T15:59:28;12.90;99.90
27741;DHT22;15134;48.768;9.184;2023-02-23T16:01:57;12.90;99.90
27741;DHT22;15134;48.768;9.184;2023-02-23T16:04:30;12.80;99.90
27741;DHT22;15134;48.768;9.184;2023-02-23T16:07:19;12.70;99.90
27741;DHT22;15134;48.768;9.184;2023-02-23T16:09:55;12.70;99.90
27741;DHT22;15134;48.768;9.184;2023-02-23T16:12:31;12.60;99.90
27741;DHT22;15134;48.768;9.184;2023-02-23T16:15:03;12.60;99.90
27741;DHT22;15134;48.768;9.184;2023-02-23T16:17:41;12.50;99.90
27741;DHT22;15134;48.768;9.184;2023-02-23T16:20:32;12.50;99.90
27741;DHT22;15134;48.768;9.184;2023-02-23T16:23:04;12.40;99.90
27741;DHT22;15134;48.768;9.184;2023-02-23T16:25:31;12.30;99.90
27741;DHT22;15134;48.768;9.184;2023-02-23T16:28:04;12.30;99.90
27741;DHT22;15134;48.768;9.184;2023-02-23T16:30:42;12.30;99.90
27741;DHT22;15134;48.768;9.184;2023-02-23T16:33:44;12.30;99.90
27741;DHT22;15134;48.768;9.184;2023-02-23T16:36:18;12.30;99.90
27741;DHT22;15134;48.768;9.184;2023-02-23T16:41:27;12.30;99.90
27741;DHT22;15134;48.768;9.184;2023-02-23T16:43:56;12.30;99.90
27741;DHT22;15134;48.768;9.184;2023-02-23T16:46:25;12.30;99.90
27741;DHT22;15134;48.768;9.184;2023-02-23T16:48:52;12.30;99.90
27741;DHT22;15134;48.768;9.184;2023-02-23T16:51:19;12.30;99.90
27741;DHT22;15134;48.768;9.184;2023-02-23T16:53:47;12.30;99.90
27741;DHT22;15134;48.768;9.184;2023-02-23T16:56:15;12.30;99.90
27741;DHT22;15134;48.768;9.184;2023-02-23T16:58:45;12.30;99.90
27741;DHT22;15134;48.768;9.184;2023-02-23T17:01:12;12.30;99.90
27741;DHT22;15134;48.768;9.184;2023-02-23T17:06:09;12.20;99.90
27741;DHT22;15134;48.768;9.184;2023-02-23T17:08:35;12.20;99.90
27741;DHT22;15134;48.768;9.184;2023-02-23T17:11:02;12.10;99.90
27741;DHT22;15134;48.768;9.184;2023-02-23T17:13:29;12.00;99.90
27741;DHT22;15134;48.768;9.184;2023-02-23T17:15:58;12.00;99.90
27741;DHT22;15134;48.768;9.184;2023-02-23T17:18:33;12.00;99.90
27741;DHT22;15134;48.768;9.184;2023-02-23T17:21:03;11.90;99.90
27741;DHT22;15134;48.768;9.184;2023-02-23T17:23:30;11.90;99.90
27741;DHT22;15134;48.768;9.184;2023-02-23T17:26:12;12.00;99.90
27741;DHT22;15134;48.768;9.184;2023-02-23T17:28:39;12.00;99.90
27741;DHT22;15134;48.768;9.184;2023-02-23T17:31:05;12.10;99.90
27741;DHT22;15134;48.768;9.184;2023-02-23T17:33:32;12.10;99.90
27741;DHT22;15134;48.768;9.184;2023-02-23T17:36:06;12.00;99.90
27741;DHT22;15134;48.768;9.184;2023-02-23T17:38:32;12.00;99.90
27741;DHT22;15134;48.768;9.184;2023-02-23T17:41:02;12.00;99.90
27741;DHT22;15134;48.768;9.184;2023-02-23T17:46:06;12.00;99.90
27741;DHT22;15134;48.768;9.184;2023-02-23T17:48:32;12.00;99.90
27741;DHT22;15134;48.768;9.184;2023-02-23T17:51:04;12.00;99.90
27741;DHT22;15134;48.768;9.184;2023-02-23T17:53:30;12.00;99.90
27741;DHT22;15134;48.768;9.184;2023-02-23T17:56:00;12.00;99.90
27741;DHT22;15134;48.768;9.184;2023-02-23T17:58:26;12.00;99.90
27741;DHT22;15134;48.768;9.184;2023-02-23T18:01:12;12.00;99.90
27741;DHT22;15134;48.768;9.184;2023-02-23T18:03:38;11.90;99.90
27741;DHT22;15134;48.768;9.184;2023-02-23T18:06:07;11.70;99.90